LiveATC.Net - Listen to live air traffic control over the Internet!

ICAO: KJRB  IATA: JRB   Airport: Downtown Manhattan/Wall St Heliport
City: New York   State/Province: New York
Country: United States   Continent: North America
KNYC METAR Weather: KNYC 211814Z AUTO 05010G22KT 010V070 1/4SM SN FG FEW005 BKN010 OVC022 00/M02 A2964 RMK AO2 PK WND 03026/1804 P0002 T00001017
KJRB Flight Activity (FlightAware)
KJRB Airport Info   (AirNav) (iFlightPlanner)
KJRB VFR Sectional Chart   (iFlightPlanner) 
KJRB IFR Low Chart   (iFlightPlanner) 
KJRB Wall St Heliport CTAF
Feed Status: DOWN
Last heard on: 2016-08-13 16:31:03 (585 days 2 hours 5 minutes ago)
KJRB Wall St Heliport CTAF Audio Archives
East River/KJRB Wall St. Heliport123.050


Unauthorized use prohibited. See Terms of Service

Find LiveATC Audio Streams

Airport/ARTCC Code

Frequency Search
(e.g., 124.400, 128.75)
Site-wide search

Browse LiveATC Feeds
LiveATC Coverage Map
Top 50 LiveATC Feeds
Bad Weather Areas

Offer a LiveATC Feed
Press Inquiries

LiveATC on iPhone
LiveATC on Android

Windows Phone
Windows 8/10

LiveATC Mobile
(Mobile browser)

ATC Audio Archives
Interesting Recordings

LiveATC Forums

Home Page
Make a Donation
Terms of Use
Privacy Policy

Canadian Air Freqs


FAA Airport Status
Nat'l Airspace Status
Arrival Demand Charts

Server Software By: